• Join FlightAware (Why Join?)
  • Login
  • US Flag 
02:32AM EST


 

Airport Tracker/Info


-or-


 

Live Flight TrackerFlight Track Log ✈ VP-BLX ✈ 21-Nov-2013 ✈ UUEE / SVO - KMIA

Flight Track Log - Related Links

Times and Time Zones

All times are in EST time to prevent confusion due to time zone crossing. See the VP-BLX flight status page for this flight to view local times or setup timezone preferences in your user account.

Time Position Orientation Groundspeed Altitude Reporting Facility
EST Latitude Longitude Course Direction KTS MPH feet Rate Location/Type
05:00AM 58.8889 21.2215 288° West 462 532 36,000  Level FlightAware ADS-B (YKMB / KRB)
05:01AM 58.9143 21.0686 288° West 459 528 36,000  Level FlightAware ADS-B (YKMB / KRB)
05:01AM 58.9382 20.9237 288° West 459 528 36,000  Level FlightAware ADS-B (YKMB / KRB)
05:02AM 58.9576 20.8050 288° West 458 527 36,000  Level FlightAware ADS-B (YKMB / KRB)
05:02AM 58.9800 20.6658 287° West 459 528 36,000  Level FlightAware ADS-B (YKMB / KRB)
05:03AM 59.0165 20.4385 287° West 460 529 36,000  Level FlightAware ADS-B (YKMB / KRB)
05:04AM 59.0360 20.3163 287° West 459 528 36,000  Level FlightAware ADS-B (YKMB / KRB)
05:04AM 59.0546 20.1978 287° West 460 529 36,000  Level FlightAware ADS-B (YKMB / KRB)
05:05AM 59.0734 20.0779 287° West 459 528 36,000  Level FlightAware ADS-B (YKMB / KRB)
05:05AM 59.0917 19.9604 287° West 458 527 36,000  Level FlightAware ADS-B (YKMB / KRB)
05:06AM 59.1098 19.8431 287° West 457 526 36,000  Level FlightAware ADS-B (YKMB / KRB)
05:06AM 59.1329 19.6917 287° West 456 525 36,000  Level FlightAware ADS-B (YKMB / KRB)
05:07AM 59.1515 19.5694 287° West 457 526 36,000  Level FlightAware ADS-B (YKMB / KRB)
05:07AM 59.1694 19.4508 286° West 458 527 36,000  Level FlightAware ADS-B (YKMB / KRB)
05:08AM 59.1875 19.3303 286° West 459 528 36,000  Level FlightAware ADS-B (YKMB / KRB)
05:09AM 59.2107 19.1743 286° West 460 529 36,000  Level FlightAware ADS-B (YKMB / KRB)
05:09AM 59.2283 19.0546 286° West 461 531 36,000  Level FlightAware ADS-B (YKMB / KRB)
05:10AM 59.2463 18.9323 286° West 458 527 36,000  Level FlightAware ADS-B (YKMB / KRB)
05:10AM 59.2689 18.7761 286° West 457 526 36,000  Level FlightAware ADS-B (YKMB / KRB)
05:11AM 59.2863 18.6546 286° West 457 526 36,000  Level FlightAware ADS-B (YKMB / KRB)
05:11AM 59.3088 18.4964 286° West 458 527 36,000  Level FlightAware ADS-B (YKMB / KRB)
05:12AM 59.3262 18.3736 286° West 457 526 36,000  Level FlightAware ADS-B (YKMB / KRB)
05:13AM 59.3483 18.2154 285° West 456 525 36,000  Level FlightAware ADS-B (YKMB / KRB)
05:13AM 59.3651 18.0943 285° West 457 526 36,000  Level FlightAware ADS-B (YKMB / KRB)
05:14AM 59.3869 17.9361 285° West 458 527 36,000  Level FlightAware ADS-B (YKMB / KRB)
05:14AM 59.4028 17.8191 285° West 461 531 36,000  Level FlightAware ADS-B (YKMB / KRB)
05:15AM 59.4247 17.6573 285° West 463 533 36,000  Level FlightAware ADS-B (YKMB / KRB)
05:15AM 59.4415 17.5312 285° West 463 533 36,000  Level FlightAware ADS-B (YKMB / KRB)
05:16AM 59.4620 17.3774 285° West 463 533 36,000  Level FlightAware ADS-B (YKMB / KRB)
05:17AM 59.4792 17.2466 285° West 463 533 36,000  Level FlightAware ADS-B (YKMB / KRB)
05:17AM 59.5002 17.0855 284° West 462 532 36,000  Level FlightAware ADS-B (YKMB / KRB)
05:18AM 59.5212 16.9220 284° West 461 531 36,000  Level FlightAware ADS-B (YKMB / KRB)
05:19AM 59.5416 16.7618 284° West 461 531 36,000  Level FlightAware ADS-B (YKMB / KRB)
05:19AM 59.5573 16.6374 284° West 459 528 36,000  Level FlightAware ADS-B (YKMB / KRB)
05:20AM 59.5761 16.4876 284° West 458 527 36,000  Level FlightAware ADS-B (YKMB / KRB)
05:20AM 59.5957 16.3297 284° West 456 525 36,000  Level FlightAware ADS-B (YKMB / KRB)
05:23AM 59.6947 15.7559 289° West  Level Estimated
05:24AM 59.7406 15.4836 289° West  Level Estimated
05:25AM 59.7859 15.2106 288° West  Level Estimated
05:26AM 59.8307 14.9369 288° West  Level Estimated
05:27AM 59.8749 14.6624 288° West  Level Estimated
05:28AM 59.9186 14.3872 288° West  Level Estimated
05:29AM 59.9616 14.1113 287° West  Level Estimated
05:30AM 60.0041 13.8347 287° West  Level Estimated
05:31AM 60.0460 13.5574 287° West  Level Estimated
05:32AM 60.0873 13.2793 287° West  Level Estimated
05:33AM 60.1281 13.0006 286° West  Level Estimated
05:34AM 60.1682 12.7212 286° West  Level Estimated
05:35AM 60.2078 12.4411 286° West  Level Estimated
05:36AM 60.2468 12.1603 286° West  Level Estimated
05:37AM 60.2851 11.8789 285° West  Level Estimated
05:38AM 60.3229 11.5968 285° West  Level Estimated
05:39AM 60.3601 11.3141 285° West  Level Estimated
05:40AM 60.3967 11.0307 285° West  Level Estimated
05:41AM 60.4327 10.7467 285° West  Level Estimated
05:42AM 60.4680 10.4621 284° West  Level Estimated
05:43AM 60.5028 10.1769 284° West  Level Estimated
05:44AM 60.5369 9.8910 284° West  Level Estimated
05:45AM 60.5705 9.6046 284° West  Level Estimated
05:46AM 60.6034 9.3175 283° West  Level Estimated
05:47AM 60.6357 9.0299 283° West  Level Estimated
05:48AM 60.6674 8.7417 283° West  Level Estimated
05:49AM 60.6985 8.4529 283° West  Level Estimated
05:50AM 60.7289 8.1636 282° West  Level Estimated
05:51AM 60.7588 7.8738 282° West  Level Estimated
05:52AM 60.7880 7.5834 282° West  Level Estimated
05:53AM 60.8165 7.2925 282° West  Level Estimated
05:54AM 60.8445 7.0011 281° West  Level Estimated
05:55AM 60.8718 6.7091 281° West  Level Estimated
05:55AM 60.6363 7.6684 281° West 460 529 36,000  Level FlightAware ADS-B (EGBP)
05:56AM 60.6524 7.5153 282° West 454 522 36,000  Level FlightAware ADS-B (EGBP)
05:56AM 60.6662 7.3828 282° West 453 521 36,000  Level FlightAware ADS-B (EGBP)
05:57AM 60.6797 7.2518 282° West 454 522 36,000  Level FlightAware ADS-B (EGBP)
05:57AM 60.6925 7.1259 282° West 455 524 36,000  Level FlightAware ADS-B (EGBP)
05:58AM 60.7053 6.9990 282° West 455 524 36,000  Level FlightAware ADS-B (EGBP)
05:58AM 60.7217 6.8355 282° West 454 522 36,000  Level FlightAware ADS-B (EGBP)
05:59AM 60.7383 6.6655 281° West 450 518 36,000  Level FlightAware ADS-B (EGBP)
06:00AM 60.7544 6.4994 281° West 451 519 36,000  Level FlightAware ADS-B (EGBP)
06:00AM 60.7703 6.3323 281° West 450 518 36,000  Level FlightAware ADS-B (EGBP)
06:01AM 60.7821 6.2072 281° West 453 521 36,000  Level FlightAware ADS-B (EGBP)
06:02AM 60.7979 6.0376 281° West 454 522 36,000  Level FlightAware ADS-B (EGBP)
06:02AM 60.8096 5.9105 281° West 455 524 36,000  Level FlightAware ADS-B (EGBP)
06:03AM 60.8212 5.7833 281° West 455 524 36,000  Level FlightAware ADS-B (EGBP)
06:03AM 60.8363 5.6158 281° West 454 522 36,000  Level FlightAware ADS-B (EGBP)
06:04AM 60.8502 5.4592 280° West 454 522 36,000  Level FlightAware ADS-B (EGBP)
06:06AM 60.8881 4.9948 280° West  Level Estimated
06:07AM 60.9112 4.7010 279° West  Level Estimated
06:08AM 60.9336 4.4067 279° West  Level Estimated
06:09AM 60.9554 4.1120 279° West  Level Estimated
06:10AM 60.9766 3.8170 279° West  Level Estimated
06:11AM 60.9971 3.5215 278° West  Level Estimated
06:12AM 61.0170 3.2257 278° West  Level Estimated
06:13AM 61.0362 2.9295 278° West  Level Estimated
06:14AM 61.0548 2.6329 278° West  Level Estimated
06:15AM 61.0727 2.3361 277° West  Level Estimated
06:16AM 61.0900 2.0388 277° West  Level Estimated
06:17AM 61.1066 1.7413 277° West  Level Estimated
06:18AM 61.1225 1.4434 276° West  Level Estimated
06:19AM 61.1378 1.1453 276° West  Level Estimated
06:20AM 61.1525 0.8469 276° West  Level Estimated
06:21AM 61.1665 0.5482 276° West  Level Estimated
06:22AM 61.1798 0.2492 275° West  Level Estimated
06:23AM 61.1925 -0.0500 275° West  Level Estimated
06:24AM 61.2045 -0.3494 275° West  Level Estimated
06:25AM 61.2159 -0.6490 275° West  Level Estimated
06:26AM 61.2266 -0.9489 274° West  Level Estimated
06:27AM 61.2366 -1.2490 274° West  Level Estimated
06:28AM 61.2459 -1.5492 274° West  Level Estimated
06:29AM 61.2547 -1.8497 274° West  Level Estimated
06:30AM 61.2627 -2.1502 273° West  Level Estimated
06:31AM 61.2701 -2.4510 273° West  Level Estimated
06:32AM 61.2768 -2.7518 273° West  Level Estimated
06:33AM 61.2828 -3.0528 273° West  Level Estimated
06:34AM 61.2882 -3.3539 272° West  Level Estimated
06:35AM 61.2929 -3.6551 272° West  Level Estimated
06:36AM 61.2969 -3.9564 272° West  Level Estimated
06:37AM 61.3003 -4.2577 271° West  Level Estimated
06:38AM 61.3030 -4.5591 271° West  Level Estimated
06:39AM 61.3050 -4.8606 271° West  Level Estimated
06:40AM 61.3064 -5.1621 271° West  Level Estimated
06:41AM 61.3071 -5.4636 270° West  Level Estimated
06:42AM 61.3072 -5.7651 270° West  Level Estimated
06:43AM 61.3065 -6.0666 270° West  Level Estimated
06:44AM 61.3052 -6.3681 270° West  Level Estimated
06:45AM 61.3032 -6.6695 269° West  Level Estimated
06:46AM 61.3006 -6.9710 269° West  Level Estimated
06:47AM 61.2973 -7.2723 269° West  Level Estimated
06:48AM 61.2933 -7.5736 269° West  Level Estimated
06:49AM 61.2887 -7.8748 268° West  Level Estimated
06:50AM 61.2834 -8.1759 268° West  Level Estimated
06:51AM 61.2774 -8.4769 268° West  Level Estimated
06:52AM 61.2707 -8.7778 268° West  Level Estimated
06:53AM 61.2634 -9.0785 267° West  Level Estimated
06:54AM 61.2555 -9.3791 267° West  Level Estimated
06:55AM 61.2468 -9.6796 267° West  Level Estimated
06:56AM 61.2375 -9.9798 266° West  Level Estimated
06:57AM 61.2276 -10.2799 266° West  Level Estimated
06:58AM 61.2169 -10.5798 266° West  Level Estimated
06:59AM 61.2057 -10.8795 266° West  Level Estimated
07:00AM 61.1937 -11.1789 265° West  Level Estimated
07:01AM 61.1811 -11.4782 265° West  Level Estimated
07:02AM 61.1678 -11.7771 265° West  Level Estimated
07:03AM 61.1539 -12.0758 265° West  Level Estimated
07:04AM 61.1393 -12.3743 264° West  Level Estimated
07:05AM 61.1241 -12.6725 264° West  Level Estimated
07:06AM 61.1082 -12.9703 264° West  Level Estimated
07:07AM 61.0916 -13.2679 264° West  Level Estimated
07:08AM 61.0744 -13.5652 263° West  Level Estimated
07:09AM 61.0565 -13.8621 263° West  Level Estimated
07:10AM 61.0380 -14.1587 263° West  Level Estimated
07:11AM 61.0189 -14.4549 263° West  Level Estimated
07:12AM 60.9991 -14.7508 262° West  Level Estimated
07:13AM 60.9786 -15.0463 262° West  Level Estimated
07:14AM 60.9575 -15.3414 262° West  Level Estimated
07:15AM 60.9358 -15.6361 261° West  Level Estimated
07:16AM 60.9134 -15.9304 261° West  Level Estimated
07:17AM 60.8904 -16.2243 261° West  Level Estimated
07:18AM 60.8667 -16.5177 261° West  Level Estimated
07:19AM 60.8424 -16.8107 260° West  Level Estimated
07:20AM 60.8174 -17.1033 260° West  Level Estimated
07:21AM 60.7919 -17.3954 260° West  Level Estimated
07:22AM 60.7656 -17.6870 260° West  Level Estimated
07:23AM 60.7388 -17.9781 259° West  Level Estimated
07:24AM 60.7113 -18.2688 259° West  Level Estimated
07:25AM 60.6832 -18.5589 259° West  Level Estimated
07:26AM 60.6545 -18.8486 259° West  Level Estimated
07:27AM 60.6251 -19.1377 258° West  Level Estimated
07:28AM 60.5952 -19.4263 258° West  Level Estimated
07:29AM 60.5646 -19.7143 258° West  Level Estimated
07:30AM 60.5334 -20.0018 258° West  Level Estimated
07:31AM 60.5015 -20.2887 257° West  Level Estimated
07:32AM 60.4691 -20.5751 257° West  Level Estimated
07:33AM 60.4361 -20.8609 257° West  Level Estimated
07:34AM 60.4024 -21.1461 257° West  Level Estimated
07:35AM 60.3681 -21.4307 256° West  Level Estimated
07:36AM 60.3332 -21.7147 256° West  Level Estimated
07:37AM 60.2977 -21.9981 256° West  Level Estimated
07:38AM 60.2680 -22.2312 256° West  Level Estimated
07:39AM 60.2379 -22.4639 255° West  Level Estimated
07:40AM 60.2074 -22.6962 255° West  Level Estimated
07:41AM 60.1765 -22.9281 255° West  Level Estimated
07:42AM 60.1451 -23.1595 255° West  Level Estimated
07:43AM 60.1134 -23.3904 255° West  Level Estimated
07:44AM 60.0813 -23.6210 254° West  Level Estimated
07:45AM 60.0488 -23.8510 254° West  Level Estimated
07:46AM 60.0158 -24.0807 254° West  Level Estimated
07:47AM 59.9825 -24.3098 254° West  Level Estimated
07:48AM 59.9488 -24.5385 254° West  Level Estimated
07:49AM 59.9147 -24.7667 253° West  Level Estimated
07:50AM 59.8801 -24.9945 253° West  Level Estimated
07:51AM 59.8452 -25.2217 253° West  Level Estimated
07:52AM 59.8100 -25.4485 253° West  Level Estimated
07:53AM 59.7743 -25.6748 253° West  Level Estimated
07:54AM 59.7382 -25.9007 253° West  Level Estimated
07:55AM 59.7017 -26.1260 252° West  Level Estimated
07:56AM 59.6649 -26.3508 252° West  Level Estimated
07:57AM 59.6277 -26.5752 252° West  Level Estimated
07:58AM 59.5901 -26.7990 252° West  Level Estimated
07:59AM 59.5521 -27.0224 252° West  Level Estimated
08:00AM 59.5137 -27.2452 251° West  Level Estimated
08:01AM 59.4749 -27.4676 251° West  Level Estimated
08:02AM 59.4358 -27.6894 251° West  Level Estimated
08:03AM 59.3963 -27.9107 251° West  Level Estimated
08:04AM 59.3564 -28.1315 251° West  Level Estimated
08:05AM 59.3162 -28.3517 250° West  Level Estimated
08:06AM 59.2756 -28.5715 250° West  Level Estimated
08:07AM 59.2346 -28.7907 250° West  Level Estimated
08:08AM 59.1932 -29.0094 250° West  Level Estimated
08:09AM 59.1515 -29.2275 250° West  Level Estimated
08:10AM 59.1094 -29.4452 249° West  Level Estimated
08:11AM 59.0670 -29.6623 249° West  Level Estimated
08:12AM 59.0242 -29.8788 249° West  Level Estimated
08:13AM 58.9810 -30.0948 249° West  Level Estimated
08:14AM 58.9375 -30.3103 249° West  Level Estimated
08:15AM 58.8936 -30.5252 249° West  Level Estimated
08:16AM 58.8493 -30.7396 248° West  Level Estimated
08:17AM 58.8047 -30.9534 248° West  Level Estimated
08:18AM 58.7598 -31.1667 248° West  Level Estimated
08:19AM 58.7145 -31.3794 248° West  Level Estimated
08:20AM 58.6688 -31.5915 248° West  Level Estimated
08:21AM 58.6228 -31.8031 247° West  Level Estimated
08:22AM 58.5765 -32.0142 247° West  Level Estimated
08:23AM 58.5298 -32.2247 247° West  Level Estimated
08:24AM 58.4828 -32.4346 247° West  Level Estimated
08:25AM 58.4354 -32.6440 247° West  Level Estimated
08:26AM 58.3877 -32.8528 247° West  Level Estimated
08:27AM 58.3396 -33.0610 246° West  Level Estimated
08:28AM 58.2912 -33.2687 246° West  Level Estimated
08:29AM 58.2425 -33.4758 246° West  Level Estimated
08:30AM 58.1935 -33.6823 246° West  Level Estimated
08:31AM 58.1441 -33.8882 246° West  Level Estimated
08:32AM 58.0943 -34.0936 245° Southwest  Level Estimated
08:33AM 58.0443 -34.2984 245° Southwest  Level Estimated
08:34AM 57.9939 -34.5027 245° Southwest  Level Estimated
08:35AM 57.9432 -34.7063 245° Southwest  Level Estimated
08:36AM 57.8922 -34.9094 245° Southwest  Level Estimated
08:37AM 57.8408 -35.1119 245° Southwest  Level Estimated
08:38AM 57.7891 -35.3138 244° Southwest  Level Estimated
08:39AM 57.7371 -35.5152 244° Southwest  Level Estimated
08:40AM 57.6848 -35.7159 244° Southwest  Level Estimated
08:41AM 57.6322 -35.9161 244° Southwest  Level Estimated
08:42AM 57.5792 -36.1157 244° Southwest  Level Estimated
08:43AM 57.5260 -36.3148 244° Southwest  Level Estimated
08:44AM 57.4724 -36.5132 243° Southwest  Level Estimated
08:45AM 57.4185 -36.7110 243° Southwest  Level Estimated
08:46AM 57.3643 -36.9083 243° Southwest  Level Estimated
08:47AM 57.3098 -37.1050 243° Southwest  Level Estimated
08:48AM 57.2550 -37.3011 243° Southwest  Level Estimated
08:49AM 57.1999 -37.4966 243° Southwest  Level Estimated
08:50AM 57.1445 -37.6916 242° Southwest  Level Estimated
08:51AM 57.0888 -37.8859 242° Southwest  Level Estimated
08:52AM 57.0328 -38.0797 242° Southwest  Level Estimated
08:53AM 56.9765 -38.2729 242° Southwest  Level Estimated
08:54AM 56.9198 -38.4655 242° Southwest  Level Estimated
08:55AM 56.8629 -38.6575 242° Southwest  Level Estimated
08:56AM 56.8057 -38.8489 241° Southwest  Level Estimated
08:57AM 56.7482 -39.0398 241° Southwest  Level Estimated
08:58AM 56.6905 -39.2300 241° Southwest  Level Estimated
08:59AM 56.6324 -39.4197 241° Southwest  Level Estimated
09:00AM 56.5740 -39.6088 241° Southwest  Level Estimated
09:01AM 56.5154 -39.7973 241° Southwest  Level Estimated
09:02AM 56.4565 -39.9852 240° Southwest  Level Estimated
09:03AM 56.3973 -40.1726 240° Southwest  Level Estimated
09:04AM 56.3378 -40.3593 240° Southwest  Level Estimated
09:05AM 56.2780 -40.5455 240° Southwest  Level Estimated
09:06AM 56.2179 -40.7311 240° Southwest  Level Estimated
09:07AM 56.1576 -40.9161 240° Southwest  Level Estimated
09:08AM 56.0970 -41.1005 240° Southwest  Level Estimated
09:09AM 56.0361 -41.2844 239° Southwest  Level Estimated
09:10AM 55.9750 -41.4676 239° Southwest  Level Estimated
09:11AM 55.9136 -41.6503 239° Southwest  Level Estimated
09:12AM 55.8519 -41.8324 239° Southwest  Level Estimated
09:13AM 55.7899 -42.0140 239° Southwest  Level Estimated
09:14AM 55.7277 -42.1949 239° Southwest  Level Estimated
09:15AM 55.6652 -42.3753 238° Southwest  Level Estimated
09:16AM 55.6024 -42.5551 238° Southwest  Level Estimated
09:17AM 55.5394 -42.7343 238° Southwest  Level Estimated
09:18AM 55.4761 -42.9130 238° Southwest  Level Estimated
09:19AM 55.4126 -43.0910 238° Southwest  Level Estimated
09:20AM 55.3488 -43.2685 238° Southwest  Level Estimated
09:21AM 55.2847 -43.4455 238° Southwest  Level Estimated
09:22AM 55.2204 -43.6218 237° Southwest  Level Estimated
09:23AM 55.1559 -43.7976 237° Southwest  Level Estimated
09:24AM 55.0911 -43.9728 237° Southwest  Level Estimated
09:25AM 55.0260 -44.1475 237° Southwest  Level Estimated
09:26AM 54.9607 -44.3216 237° Southwest  Level Estimated
09:27AM 54.8951 -44.4951 237° Southwest  Level Estimated
09:28AM 54.8293 -44.6680 237° Southwest  Level Estimated
09:29AM 54.7633 -44.8404 236° Southwest  Level Estimated
09:30AM 54.6970 -45.0122 236° Southwest  Level Estimated
09:31AM 54.6304 -45.1835 236° Southwest  Level Estimated
09:32AM 54.5637 -45.3542 236° Southwest  Level Estimated
09:33AM 54.4966 -45.5243 236° Southwest  Level Estimated
09:34AM 54.4294 -45.6939 236° Southwest  Level Estimated
09:35AM 54.3619 -45.8630 236° Southwest  Level Estimated
09:36AM 54.2942 -46.0314 235° Southwest  Level Estimated
09:37AM 54.2262 -46.1993 235° Southwest  Level Estimated
09:38AM 54.1580 -46.3667 235° Southwest  Level Estimated
09:39AM 54.0896 -46.5335 235° Southwest  Level Estimated
09:40AM 54.0209 -46.6998 235° Southwest  Level Estimated
09:41AM 53.9520 -46.8655 235° Southwest  Level Estimated
09:42AM 53.8829 -47.0307 235° Southwest  Level Estimated
09:43AM 53.8136 -47.1953 235° Southwest  Level Estimated
09:44AM 53.7440 -47.3594 234° Southwest  Level Estimated
09:45AM 53.6742 -47.5229 234° Southwest  Level Estimated
09:46AM 53.6042 -47.6859 234° Southwest  Level Estimated
09:47AM 53.5340 -47.8484 234° Southwest  Level Estimated
09:48AM 53.4636 -48.0103 234° Southwest  Level Estimated
09:49AM 53.3929 -48.1716 234° Southwest  Level Estimated
09:50AM 53.3220 -48.3325 234° Southwest  Level Estimated
09:51AM 53.2509 -48.4928 233° Southwest  Level Estimated
09:52AM 53.1796 -48.6526 233° Southwest  Level Estimated
09:53AM 53.1081 -48.8118 233° Southwest  Level Estimated
09:54AM 53.0363 -48.9705 233° Southwest  Level Estimated
09:55AM 52.9644 -49.1287 233° Southwest  Level Estimated
09:56AM 52.8922 -49.2864 233° Southwest  Level Estimated
09:57AM 52.8199 -49.4435 233° Southwest  Level Estimated
09:58AM 52.7473 -49.6001 233° Southwest  Level Estimated
09:59AM 52.6745 -49.7562 232° Southwest  Level Estimated
10:00AM 52.6015 -49.9118 232° Southwest  Level Estimated
10:01AM 52.5283 -50.0668 232° Southwest  Level Estimated
10:02AM 52.4549 -50.2213 232° Southwest  Level Estimated
10:03AM 52.3814 -50.3754 232° Southwest  Level Estimated
10:04AM 52.3076 -50.5289 232° Southwest  Level Estimated
10:05AM 52.2336 -50.6819 232° Southwest  Level Estimated
10:06AM 52.1594 -50.8343 232° Southwest  Level Estimated
10:07AM 52.0850 -50.9863 232° Southwest  Level Estimated
10:08AM 52.0104 -51.1378 231° Southwest  Level Estimated
10:09AM 51.9357 -51.2887 231° Southwest  Level Estimated
10:10AM 51.8607 -51.4392 231° Southwest  Level Estimated
10:11AM 51.7856 -51.5892 231° Southwest  Level Estimated
10:12AM 51.7102 -51.7386 231° Southwest  Level Estimated
10:13AM 51.6347 -51.8876 231° Southwest  Level Estimated
10:14AM 51.5590 -52.0360 231° Southwest  Level Estimated
10:15AM 51.4831 -52.1840 231° Southwest  Level Estimated
10:16AM 51.4070 -52.3315 230° Southwest  Level Estimated
10:17AM 51.3307 -52.4785 230° Southwest  Level Estimated
10:18AM 51.2543 -52.6250 230° Southwest  Level Estimated
10:19AM 51.1776 -52.7710 230° Southwest  Level Estimated
10:20AM 51.1008 -52.9165 230° Southwest  Level Estimated
10:21AM 51.0238 -53.0616 230° Southwest  Level Estimated
10:22AM 50.9466 -53.2061 230° Southwest  Level Estimated
10:23AM 50.8693 -53.3502 230° Southwest  Level Estimated
10:24AM 50.7917 -53.4938 230° Southwest  Level Estimated
10:25AM 50.7140 -53.6370 229° Southwest  Level Estimated
10:26AM 50.6361 -53.7796 229° Southwest  Level Estimated
10:27AM 50.5581 -53.9218 229° Southwest  Level Estimated
10:28AM 50.4799 -54.0635 229° Southwest  Level Estimated
10:29AM 50.4015 -54.2048 229° Southwest  Level Estimated
10:30AM 50.3229 -54.3455 229° Southwest  Level Estimated
10:31AM 50.2441 -54.4858 229° Southwest  Level Estimated
10:32AM 50.1652 -54.6257 229° Southwest  Level Estimated
10:33AM 50.0862 -54.7651 229° Southwest  Level Estimated
10:34AM 50.0069 -54.9040 228° Southwest  Level Estimated
10:35AM 49.9275 -55.0425 228° Southwest  Level Estimated
10:36AM 49.8479 -55.1805 228° Southwest  Level Estimated
10:37AM 49.7682 -55.3181 228° Southwest  Level Estimated
10:38AM 49.6883 -55.4552 228° Southwest  Level Estimated
10:38AM 54.1167 -54.3667 227° Southwest 430 495 36,000  Level Gander Center
10:39AM 49.6082 -55.5918 228° Southwest  Level Estimated
10:39AM 54.0500 -54.5333 236° Southwest 430 495 36,000  Level Gander Center
10:40AM 49.5280 -55.7280 228° Southwest  Level Estimated
10:40AM 53.9500 -54.7167 227° Southwest 430 495 36,000  Level Gander Center
10:41AM 49.4476 -55.8638 228° Southwest  Level Estimated
10:41AM 53.9000 -54.8667 241° Southwest 430 495 36,000  Level Gander Center
10:42AM 49.3671 -55.9991 228° Southwest  Level Estimated
10:42AM 53.8167 -55.0167 227° Southwest 440 506 36,000  Level Gander Center
10:43AM 49.2864 -56.1340 227° Southwest  Level Estimated
10:43AM 53.7667 -55.2000 245° Southwest 440 506 36,000  Level Gander Center
10:44AM 53.7000 -55.3833 238° Southwest 450 518 36,000  Level Gander Center
10:45AM 53.6500 -55.5500 243° Southwest 440 506 36,000  Level Gander Center
10:46AM 53.5667 -55.7333 233° Southwest 440 506 36,000  Level Gander Center
10:47AM 53.5167 -55.9167 245° Southwest 440 506 36,000  Level Gander Center
10:48AM 53.4333 -56.1167 235° Southwest 440 506 36,000  Level Gander Center
10:49AM 53.3833 -56.2667 241° Southwest 440 506 36,000  Level Gander Center
10:50AM 53.3167 -56.4333 236° Southwest 430 495 36,000  Level Gander Center
10:51AM 53.2500 -56.6167 239° Southwest 430 495 36,000  Level Gander Center
10:52AM 53.2000 -56.7833 243° Southwest 430 495 36,000  Level Gander Center
10:52AM 53.1500 -56.8833 230° Southwest 430 495 36,000  Level Moncton Center
10:54AM 53.0500 -57.1333 236° Southwest 440 506 36,000  Level Gander Center
10:55AM 53.0000 -57.3167 246° West 450 518 36,000  Level Gander Center
10:56AM 52.9167 -57.4833 230° Southwest 450 518 36,000  Level Gander Center
10:57AM 52.8500 -57.6500 237° Southwest 450 518 36,000  Level Gander Center
10:58AM 52.7833 -57.8333 239° Southwest 450 518 36,000  Level Gander Center
10:59AM 52.7167 -58.0000 237° Southwest 460 529 36,000  Level Gander Center
11:00AM 52.6000 -58.2833 236° Southwest 460 529 36,000  Level Gander Center
11:01AM 52.5500 -58.4500 244° Southwest 460 529 36,000  Level Gander Center
11:02AM 52.4667 -58.6167 231° Southwest 450 518 36,000  Level Gander Center
11:03AM 52.4000 -58.7833 237° Southwest 450 518 36,000  Level Gander Center
11:04AM 52.3167 -58.9500 231° Southwest 450 518 36,000  Level Gander Center
11:05AM 52.2500 -59.1500 241° Southwest 450 518 36,000  Level Gander Center
11:06AM 52.1833 -59.3167 237° Southwest 450 518 36,000  Level Gander Center
11:07AM 52.1167 -59.4500 231° Southwest 450 518 36,000  Level Gander Center
11:08AM 52.0333 -59.6500 236° Southwest 460 529 36,000  Level Gander Center
11:10AM 51.9333 -59.9000 237° Southwest 450 518 36,000 360 Level Gander Center
11:11AM 51.8500 -60.0667 231° Southwest 450 518 37,000 960 Climbing Gander Center
11:12AM 51.7833 -60.2333 237° Southwest 460 529 38,000 480 Climbing Gander Center
11:13AM 51.7167 -60.3833 234° Southwest 460 529 38,000  Level Gander Center
11:13AM 51.6500 -60.5167 231° Southwest 470 541 38,000  Level Moncton Center
11:15AM 51.5500 -60.7500 235° Southwest 470 541 38,000  Level Gander Center
11:16AM 51.4833 -60.9000 235° Southwest 470 541 38,000  Level Gander Center
11:17AM 51.4000 -61.0667 231° Southwest 460 529 38,000  Level Gander Center
11:18AM 51.3167 -61.2500 234° Southwest 460 529 38,000  Level Gander Center
11:19AM 51.2500 -61.4167 237° Southwest 460 529 38,000  Level Gander Center
11:20AM 51.1833 -61.5833 238° Southwest 460 529 38,000  Level Gander Center
11:21AM 51.1000 -61.7333 229° Southwest 460 529 38,000  Level Gander Center
11:22AM 51.0333 -61.9000 238° Southwest 460 529 38,000  Level Gander Center
11:23AM 50.9500 -62.0833 234° Southwest 460 529 38,000  Level Gander Center
11:24AM 50.8833 -62.2333 235° Southwest 460 529 38,000  Level Gander Center
11:25AM 50.8000 -62.4000 232° Southwest 460 529 38,000  Level Gander Center
11:25AM 50.7500 -62.5167 236° Southwest 460 529 38,000  Level Moncton Center
11:27AM 50.6500 -62.7333 234° Southwest 460 529 38,000  Level Gander Center
11:28AM 50.5667 -62.8833 229° Southwest 460 529 38,000  Level Gander Center
11:29AM 50.4833 -63.0500 232° Southwest 460 529 38,000  Level Gander Center
11:29AM 50.4333 -63.1667 236° Southwest 450 518 38,000  Level Moncton Center
11:31AM 50.3333 -63.3500 230° Southwest 460 529 38,000  Level Gander Center
11:32AM 50.2500 -63.5333 235° Southwest 460 529 38,000  Level Gander Center
11:33AM 50.1833 -63.6833 235° Southwest 460 529 38,000  Level Gander Center
11:34AM 50.0833 -63.8333 224° Southwest 460 529 38,000  Level Gander Center
11:34AM 50.0500 -63.9500 246° West 460 529 38,000  Level Moncton Center
11:35AM 49.9667 -64.1167 232° Southwest 460 529 38,000  Level Moncton Center
11:36AM 49.9000 -64.2667 235° Southwest 460 529 38,000  Level Moncton Center
11:37AM 49.8000 -64.4000 221° Southwest 460 529 38,000  Level Moncton Center
11:38AM 49.7000 -64.5333 221° Southwest 470 541 38,000  Level Moncton Center
11:40AM 49.5667 -64.6833 216° Southwest 470 541 38,000  Level Gander Center
11:41AM 49.4500 -64.8000 213° Southwest 470 541 38,000  Level Gander Center
11:41AM 49.3833 -64.8833 219° Southwest 460 529 38,000  Level Moncton Center
11:42AM 49.2667 -65.0167 217° Southwest 460 529 38,000  Level Moncton Center
11:43AM 49.1667 -65.1167 213° Southwest 460 529 38,000  Level Moncton Center
11:44AM 49.0667 -65.2333 217° Southwest 460 529 38,000  Level Moncton Center
11:45AM 48.9667 -65.3667 221° Southwest 470 541 38,000  Level Moncton Center
11:46AM 48.8667 -65.4833 218° Southwest 470 541 38,000  Level Moncton Center
11:47AM 48.7500 -65.5833 209° Southwest 470 541 38,000  Level Moncton Center
11:48AM 48.6500 -65.7167 221° Southwest 470 541 38,000  Level Moncton Center
11:49AM 48.5500 -65.8333 218° Southwest 470 541 38,000  Level Moncton Center
11:50AM 48.4500 -65.9667 222° Southwest 470 541 38,000  Level Moncton Center
11:51AM 48.3333 -66.0667 210° Southwest 470 541 38,000  Level Moncton Center
11:52AM 48.2167 -66.1833 214° Southwest 470 541 38,000  Level Moncton Center
11:53AM 48.1167 -66.3000 218° Southwest 470 541 38,000  Level Moncton Center
11:54AM 48.0167 -66.4167 218° Southwest 460 529 38,000  Level Moncton Center
11:55AM 47.9167 -66.5500 222° Southwest 460 529 38,000  Level Moncton Center
11:56AM 47.8333 -66.6667 223° Southwest 470 541 38,000  Level Moncton Center
11:57AM 47.7167 -66.8167 221° Southwest 450 518 38,000  Level Moncton Center
11:58AM 47.6333 -66.9000 214° Southwest 450 518 38,000  Level Moncton Center
11:59AM 47.5500 -67.0500 231° Southwest 450 518 38,000  Level Moncton Center
12:00PM 47.4667 -67.1667 223° Southwest 440 506 38,000  Level Moncton Center
12:01PM 47.3500 -67.2833 214° Southwest 450 518 38,000  Level Moncton Center
12:02PM 47.2500 -67.3833 214° Southwest 450 518 38,000  Level Moncton Center
12:03PM 47.1992 -67.4364 215° Southwest 454 522 38,000  Level Boston Center
12:04PM 47.0942 -67.5364 213° Southwest 452 520 38,000  Level Boston Center
12:05PM 46.9869 -67.6364 212° Southwest 458 527 38,000  Level Boston Center
12:06PM 46.8817 -67.7344 212° Southwest 452 520 38,000  Level Boston Center
12:07PM 46.7733 -67.8322 212° Southwest 458 527 38,000  Level Boston Center
12:08PM 46.6647 -67.9331 213° Southwest 465 535 38,000  Level Boston Center
12:13PM 46.1115 -68.4411 213° Southwest 458 527 38,000  Level FlightAware ADS-B
12:18PM 45.6195 -68.8799 212° Southwest 459 528 38,000  Level FlightAware ADS-B
12:19PM 45.5053 -68.9805 212° Southwest 457 526 38,000  Level FlightAware ADS-B
12:19PM 45.4408 -69.0369 212° Southwest 458 527 38,000  Level FlightAware ADS-B
12:20PM 45.3904 -69.0810 212° Southwest 457 526 38,000  Level FlightAware ADS-B
12:21PM 45.2852 -69.1727 212° Southwest 455 524 38,000  Level FlightAware ADS-B (CYQI)
12:21PM 45.2096 -69.2385 212° Southwest 454 522 38,000  Level FlightAware ADS-B (CYQI)
12:22PM 45.1798 -69.2644 212° Southwest 454 522 38,000  Level FlightAware ADS-B
12:22PM 45.1106 -69.3242 211° Southwest 456 525 38,000  Level FlightAware ADS-B (CYQI)
12:23PM 45.0419 -69.3835 211° Southwest 457 526 38,000  Level FlightAware ADS-B
12:24PM 44.9797 -69.4370 211° Southwest 456 525 38,000  Level FlightAware ADS-B
12:24PM 44.9300 -69.4797 211° Southwest 454 522 38,000  Level FlightAware ADS-B
12:25PM 44.8779 -69.5241 211° Southwest 453 521 38,000  Level FlightAware ADS-B (KBGR)
12:25PM 44.7927 -69.5968 211° Southwest 454 522 38,000  Level FlightAware ADS-B
12:26PM 44.7227 -69.6564 211° Southwest 454 522 38,000  Level FlightAware ADS-B (CYQI)
12:26PM 44.6640 -69.7064 211° Southwest 452 520 38,000  Level FlightAware ADS-B (KBGR)
12:27PM 44.6153 -69.7477 211° Southwest 450 518 38,000  Level FlightAware ADS-B (CYQI)
12:28PM 44.5535 -69.8000 211° Southwest 450 518 38,000  Level FlightAware ADS-B
12:28PM 44.4822 -69.8601 211° Southwest 450 518 38,000  Level FlightAware ADS-B
12:29PM 44.4262 -69.9070 211° Southwest 450 518 38,000  Level FlightAware ADS-B
12:29PM 44.3689 -69.9550 211° Southwest 453 521 38,000  Level FlightAware ADS-B
12:30PM 44.3187 -69.9971 211° Southwest 453 521 38,000  Level FlightAware ADS-B
12:30PM 44.2375 -70.0648 211° Southwest 453 521 38,000  Level FlightAware ADS-B
12:31PM 44.1677 -70.1230 211° Southwest 453 521 38,000  Level FlightAware ADS-B (CYQI)
12:32PM 44.1081 -70.1727 211° Southwest 452 520 38,000  Level FlightAware ADS-B (CYQI)
12:33PM 43.9272 -70.3220 211° Southwest 454 522 38,000  Level FlightAware ADS-B (CYQI)
12:34PM 43.8725 -70.3670 211° Southwest 448 516 38,000  Level FlightAware ADS-B
12:34PM 43.8729 -70.3666 29° Northeast 455 524 38,000  Level FlightAware ADS-B (KBOS)
12:35PM 43.7527 -70.4653 211° Southwest 456 525 38,000  Level FlightAware ADS-B (KBOS)
12:35PM 43.6930 -70.5138 210° Southwest 449 517 38,000  Level FlightAware ADS-B
12:36PM 43.6305 -70.5647 210° Southwest 454 522 38,000  Level FlightAware ADS-B (KBOS)
12:37PM 43.5746 -70.6101 210° Southwest 454 522 38,000  Level FlightAware ADS-B (KBOS)
12:37PM 43.5110 -70.6618 211° Southwest 448 516 38,000  Level FlightAware ADS-B
12:38PM 43.4553 -70.7068 210° Southwest 447 514 38,000  Level FlightAware ADS-B
12:38PM 43.4011 -70.7507 210° Southwest 454 522 38,000  Level FlightAware ADS-B (KBOS)
12:39PM 43.3401 -70.7999 210° Southwest 455 524 38,000  Level FlightAware ADS-B (KBOS)
12:39PM 43.2872 -70.8425 210° Southwest 455 524 38,000  Level FlightAware ADS-B (KBOS)
12:39PM 43.2907 -70.8397 30° Northeast 455 524 38,000  Level FlightAware ADS-B (SBBR / BSB)
12:40PM 43.2182 -70.8977 210° Southwest 449 517 38,000  Level FlightAware ADS-B
12:40PM 43.1985 -70.9134 210° Southwest 455 524 38,000  Level FlightAware ADS-B (SBBR / BSB)
12:41PM 43.1265 -70.9708 210° Southwest 447 514 38,000  Level FlightAware ADS-B
12:41PM 43.0650 -71.0198 210° Southwest 454 522 38,000  Level FlightAware ADS-B (KBOS)
12:42PM 43.0103 -71.0633 210° Southwest 453 521 38,000  Level FlightAware ADS-B (KBOS)
12:42PM 42.9376 -71.1213 210° Southwest 453 521 38,000  Level FlightAware ADS-B (KBOS)
12:43PM 42.9110 -71.1424 210° Southwest 447 514 38,000  Level FlightAware ADS-B
12:43PM 42.8739 -71.1718 210° Southwest 447 514 38,000  Level FlightAware ADS-B
12:43PM 42.8382 -71.1998 210° Southwest 448 516 38,000  Level FlightAware ADS-B
12:44PM 42.8184 -71.2154 210° Southwest 447 514 38,000  Level FlightAware ADS-B
12:44PM 42.7661 -71.2565 210° Southwest 454 522 38,000  Level FlightAware ADS-B (KBOS)
12:44PM 42.7452 -71.2730 210° Southwest 447 514 38,000  Level FlightAware ADS-B
12:44PM 42.7325 -71.2830 210° Southwest 446 513 38,000  Level FlightAware ADS-B
12:45PM 42.7116 -71.2994 210° Southwest 445 512 38,000  Level FlightAware ADS-B
12:45PM 42.6954 -71.3121 210° Southwest 452 520 38,000  Level FlightAware ADS-B (SBBR / BSB)
12:45PM 42.6365 -71.3583 210° Southwest 450 518 38,000  Level FlightAware ADS-B
12:46PM 42.5827 -71.4003 210° Southwest 450 518 38,000  Level FlightAware ADS-B (SBBR / BSB)
12:46PM 42.5511 -71.4250 210° Southwest 445 512 38,000  Level FlightAware ADS-B
12:46PM 42.5268 -71.4440 210° Southwest 445 512 38,000  Level FlightAware ADS-B
12:46PM 42.5092 -71.4578 210° Southwest 445 512 38,000  Level FlightAware ADS-B
12:47PM 42.4907 -71.4722 210° Southwest 445 512 38,000  Level FlightAware ADS-B
12:47PM 42.4721 -71.4868 210° Southwest 453 521 38,000  Level FlightAware ADS-B (SBBR / BSB)
12:47PM 42.4918 -71.4714 30° Northeast 453 521 38,000  Level FlightAware ADS-B (KSNC)
12:47PM 42.4443 -71.5084 210° Southwest 453 521 38,000  Level FlightAware ADS-B (KSNC)
12:48PM 42.3836 -71.5557 210° Southwest 453 521 38,000  Level FlightAware ADS-B (SBBR / BSB)
12:48PM 42.3455 -71.5852 210° Southwest 455 524 38,000  Level FlightAware ADS-B (SBBR / BSB)
12:48PM 42.2969 -71.6228 210° Southwest 455 524 38,000  Level FlightAware ADS-B (SBBR / BSB)
12:49PM 42.2453 -71.6631 210° Southwest 450 518 38,000  Level FlightAware ADS-B (SBBR / BSB)
12:49PM 42.2266 -71.6805 215° Southwest 449 517 38,000  Level FlightAware ADS-B (SBBR / BSB)
12:49PM 42.2034 -71.7034 216° Southwest 442 509 38,000  Level FlightAware ADS-B
12:49PM 42.1863 -71.7203 216° Southwest 443 510 38,000  Level FlightAware ADS-B
12:50PM 42.1691 -71.7370 216° Southwest 443 510 38,000  Level FlightAware ADS-B
12:50PM 42.1529 -71.7528 216° Southwest 442 509 38,000  Level FlightAware ADS-B
12:50PM 42.1368 -71.7686 216° Southwest 442 509 38,000  Level FlightAware ADS-B
12:50PM 42.1186 -71.7864 216° Southwest 442 509 38,000  Level FlightAware ADS-B
12:50PM 42.1043 -71.8003 216° Southwest 442 509 38,000  Level FlightAware ADS-B
12:51PM 42.0714 -71.8325 216° Southwest 441 507 38,000  Level FlightAware ADS-B
12:51PM 42.0368 -71.8662 216° Southwest 441 507 38,000  Level FlightAware ADS-B
12:51PM 42.0219 -71.8809 216° Southwest 441 507 38,000  Level FlightAware ADS-B
12:51PM 41.9962 -71.9059 216° Southwest 447 514 38,000  Level FlightAware ADS-B (SBBR / BSB)
12:52PM 41.9681 -71.9333 216° Southwest 446 513 38,000  Level FlightAware ADS-B (SBBR / BSB)
12:52PM 41.9613 -71.9399 216° Southwest 446 513 38,000  Level FlightAware ADS-B (SBBR / BSB)
12:52PM 41.9178 -71.9820 216° Southwest 447 514 38,000  Level FlightAware ADS-B (SBBR / BSB)
12:53PM 41.8593 -72.0388 216° Southwest 448 516 38,000  Level FlightAware ADS-B (SBBR / BSB)
12:53PM 41.8377 -72.0596 216° Southwest 442 509 38,000  Level FlightAware ADS-B
12:53PM 41.8184 -72.0783 216° Southwest 443 510 38,000  Level FlightAware ADS-B
12:53PM 41.8123 -72.0842 216° Southwest 443 510 38,000  Level FlightAware ADS-B
12:53PM 41.7925 -72.1032 216° Southwest 443 510 38,000  Level FlightAware ADS-B
12:53PM 41.7785 -72.1167 216° Southwest 443 510 38,000  Level FlightAware ADS-B
12:54PM 41.7161 -72.1767 216° Southwest 448 516 38,000  Level FlightAware ADS-B (SBBR / BSB)
12:55PM 41.6656 -72.2251 216° Southwest 447 514 38,000  Level FlightAware ADS-B (SBBR / BSB)
12:55PM 41.6092 -72.2792 216° Southwest 446 513 38,000  Level FlightAware ADS-B (KSNC)
12:56PM 41.5600 -72.3261 216° Southwest 444 511 38,000  Level FlightAware ADS-B (KSNC)
12:56PM 41.5040 -72.3795 216° Southwest 442 509 38,000  Level FlightAware ADS-B (KSNC)
12:57PM 41.4525 -72.4286 216° Southwest 439 505 38,000  Level FlightAware ADS-B (KSNC)
12:57PM 41.3910 -72.4870 216° Southwest 438 504 38,000  Level FlightAware ADS-B (KSNC)
12:58PM 41.3407 -72.5348 215° Southwest 438 504 38,000  Level FlightAware ADS-B (KSNC)
12:58PM 41.2882 -72.5843 215° Southwest 438 504 38,000  Level FlightAware ADS-B (SBBR / BSB)
12:59PM 41.2332 -72.6362 215° Southwest 440 506 38,000  Level FlightAware ADS-B (KSNC)
12:59PM 41.1803 -72.6862 215° Southwest 440 506 38,000  Level FlightAware ADS-B (KSNC)
01:00PM 41.1321 -72.7314 215° Southwest 441 507 38,000  Level FlightAware ADS-B (KSNC)
01:01PM 41.0887 -72.7721 215° Southwest 443 510 38,000  Level FlightAware ADS-B (KSNC)
01:01PM 41.0034 -72.8520 215° Southwest 442 509 38,000  Level FlightAware ADS-B (SBBR / BSB)
01:02PM 40.9550 -72.8972 215° Southwest 443 510 38,000  Level FlightAware ADS-B (KSNC)
01:02PM 40.8837 -72.9638 215° Southwest 446 513 38,000  Level FlightAware ADS-B (KSNC)
01:03PM 40.8215 -73.0217 215° Southwest 446 513 38,000  Level FlightAware ADS-B (KSNC)
01:04PM 40.7714 -73.0681 215° Southwest 447 514 38,000  Level FlightAware ADS-B (KSNC)
01:04PM 40.6977 -73.1362 215° Southwest 445 512 38,000  Level FlightAware ADS-B (KSNC)
01:05PM 40.6464 -73.1836 215° Southwest 444 511 38,000  Level FlightAware ADS-B (KSNC)
01:05PM 40.5968 -73.2293 215° Southwest 446 513 38,000  Level FlightAware ADS-B (KSNC)
01:06PM 40.5316 -73.2892 215° Southwest 447 514 38,000  Level FlightAware ADS-B (KSNC)
01:07PM 40.4638 -73.3514 215° Southwest 445 512 38,000  Level FlightAware ADS-B (KSNC)
01:07PM 40.4130 -73.3978 215° Southwest 444 511 38,000  Level FlightAware ADS-B (KSNC)
01:08PM 40.3398 -73.4647 215° Southwest 445 512 38,000  Level FlightAware ADS-B (KSNC)
01:08PM 40.2869 -73.5130 215° Southwest 445 512 38,000  Level FlightAware ADS-B (KSNC)
01:09PM 40.2172 -73.5762 215° Southwest 446 513 38,000  Level FlightAware ADS-B (KSNC)
01:10PM 40.1499 -73.6374 215° Southwest 448 516 38,000  Level FlightAware ADS-B (KSNC)
01:10PM 40.0945 -73.6875 215° Southwest 447 514 38,000  Level FlightAware ADS-B (KSNC)
01:13PM 39.8195 -73.9346 215° Southwest 450 518 38,000  Level FlightAware ADS-B (KOQN)
01:14PM 39.7858 -73.9661 215° Southwest 446 513 38,000  Level Washington Center
01:15PM 39.6744 -74.0628 214° Southwest 446 513 38,000  Level Washington Center
01:15PM 39.5672 -74.1567 214° Southwest 451 519 38,000  Level Washington Center
01:21PM 39.0464 -74.6665 214° Southwest 442 509 38,000  Level FlightAware ADS-B (KSBY)
01:22PM 38.9407 -74.7739 218° Southwest 440 506 38,000  Level FlightAware ADS-B
01:23PM 38.8661 -74.8502 219° Southwest 441 507 38,000  Level FlightAware ADS-B
01:23PM 38.8083 -74.9091 218° Southwest 442 509 38,000  Level FlightAware ADS-B
01:24PM 38.7878 -74.9299 218° Southwest 442 509 38,000  Level FlightAware ADS-B (KSBY)
01:25PM 38.6265 -75.0840 217° Southwest 456 525 38,000  Level FlightAware ADS-B (KSBY)
01:26PM 38.5128 -75.1533 206° Southwest 454 522 38,000  Level FlightAware ADS-B (KSBY)
01:27PM 38.4230 -75.2086 206° Southwest 452 520 38,000  Level FlightAware ADS-B (KSBY)
01:27PM 38.3435 -75.2575 206° Southwest 452 520 38,000  Level FlightAware ADS-B (KSBY)
01:28PM 38.2784 -75.2974 206° Southwest 452 520 38,000  Level FlightAware ADS-B (KSBY)
01:29PM 38.2201 -75.3331 206° Southwest 453 521 38,000  Level FlightAware ADS-B (KSBY)
01:29PM 38.1552 -75.3726 206° Southwest 453 521 38,000  Level FlightAware ADS-B (KSBY)
01:30PM 38.0757 -75.4210 206° Southwest 455 524 38,000  Level FlightAware ADS-B (KSBY)
01:30PM 38.0258 -75.4512 206° Southwest 455 524 38,000  Level FlightAware ADS-B (KSBY)
01:31PM 37.9507 -75.4970 206° Southwest 454 522 38,000  Level FlightAware ADS-B (KSBY)
01:32PM 37.8709 -75.5455 206° Southwest 454 522 38,000  Level FlightAware ADS-B (KSBY)
01:32PM 37.8091 -75.5828 206° Southwest 454 522 38,000  Level FlightAware ADS-B (KSBY)
01:33PM 37.7526 -75.6169 205° Southwest 454 522 38,000  Level FlightAware ADS-B (KSBY)
01:34PM 37.6642 -75.6678 205° Southwest 460 529 38,000  Level Washington Center
01:35PM 37.5494 -75.7358 205° Southwest 460 529 38,000  Level Washington Center
01:35PM 37.4367 -75.8036 206° Southwest 460 529 38,000  Level Washington Center
01:36PM 37.3219 -75.8739 206° Southwest 460 529 38,000  Level Washington Center
01:38PM 37.2069 -75.9414 205° Southwest 460 529 38,000  Level Washington Center
01:39PM 37.0919 -76.0086 205° Southwest 460 529 38,000  Level Washington Center
01:40PM 36.9811 -76.0756 206° Southwest 460 529 38,000  Level Washington Center
01:40PM 36.8683 -76.1422 205° Southwest 460 529 38,000  Level Washington Center
01:41PM 36.7553 -76.2114 206° Southwest 455 524 38,000  Level Washington Center
01:42PM 36.6422 -76.2753 204° Southwest 455 524 38,000  Level Washington Center
01:44PM 36.5292 -76.3417 205° Southwest 449 517 38,000  Level Washington Center
01:45PM 36.4161 -76.4103 206° Southwest 449 517 38,000  Level Washington Center
01:46PM 36.3008 -76.4733 204° Southwest 449 517 38,000  Level Washington Center
01:47PM 36.1897 -76.5392 206° Southwest 449 517 38,000  Level Washington Center
01:47PM 36.0767 -76.6044 205° Southwest 449 517 38,000  Level Washington Center
01:48PM 35.9656 -76.6697 205° Southwest 449 517 38,000  Level Washington Center
01:50PM 35.8647 -76.7250 204° Southwest 443 510 38,000  Level Washington Center
01:50PM 35.7536 -76.7897 205° Southwest 443 510 38,000  Level Washington Center
01:51PM 35.6383 -76.8547 205° Southwest 448 516 38,000  Level Washington Center
01:53PM 35.5247 -76.9192 205° Southwest 448 516 38,000  Level Washington Center
01:54PM 35.4094 -76.9836 204° Southwest 448 516 38,000  Level Washington Center
01:55PM 35.2958 -77.0478 205° Southwest 448 516 38,000  Level Washington Center
01:55PM 35.1719 -77.1167 204° Southwest 448 516 38,000  Level Washington Center
01:56PM 35.0564 -77.1806 204° Southwest 448 516 38,000  Level Washington Center
01:58PM 34.9428 -77.2442 205° Southwest 448 516 38,000  Level Washington Center
01:59PM 34.8250 -77.3100 205° Southwest 448 516 38,000  Level Washington Center
02:00PM 34.7156 -77.3733 205° Southwest 448 516 38,000  Level Washington Center
02:00PM 34.6019 -77.4392 206° Southwest 448 516 38,000  Level Washington Center
02:01PM 34.4803 -77.4817 196° South 453 521 38,000  Level Washington Center
02:02PM 34.3567 -77.5242 196° South 458 527 38,000  Level Washington Center
02:04PM 34.2350 -77.5614 194° South 458 527 38,000  Level Washington Center
02:05PM 34.1111 -77.5986 194° South 458 527 38,000  Level Washington Center
02:08PM 33.7181 -77.7267 195° South 438 504 38,000  Level Jacksonville Center
02:09PM 33.5944 -77.7639 194° South 446 513 38,000  Level Jacksonville Center
02:10PM 33.4708 -77.8033 195° South 452 520 38,000  Level Jacksonville Center
02:11PM 33.3494 -77.8428 195° South 447 514 38,000  Level Jacksonville Center
02:12PM 33.2300 -77.8817 195° South 447 514 38,000  Level Jacksonville Center
02:13PM 33.1061 -77.9158 193° South 447 514 38,000  Level Jacksonville Center
02:14PM 32.9822 -77.9550 195° South 442 509 38,000  Level Jacksonville Center
02:15PM 32.8567 -77.9942 195° South 454 522 38,000  Level Jacksonville Center
02:16PM 32.7369 -78.0325 195° South 454 522 38,000  Level Jacksonville Center
02:17PM 32.6131 -78.0689 194° South 454 522 38,000  Level Jacksonville Center
02:18PM 32.4872 -78.1075 195° South 454 522 38,000  Level Jacksonville Center
02:19PM 32.3678 -78.1483 196° South 459 528 38,000  Level Jacksonville Center
02:20PM 32.2461 -78.1867 195° South 454 522 38,000  Level Jacksonville Center
02:21PM 32.1242 -78.2197 193° South 454 522 38,000  Level Jacksonville Center
02:22PM 31.9922 -78.2656 196° South 454 522 38,000  Level Jacksonville Center
02:23PM 31.8706 -78.3061 196° South 449 517 38,000  Level Jacksonville Center
02:24PM 31.7550 -78.3436 195° South 441 507 38,000  Level Jacksonville Center
02:25PM 31.6353 -78.3836 196° South 447 514 38,000  Level Jacksonville Center
02:26PM 31.5136 -78.4211 195° South 445 512 38,000  Level Jacksonville Center
02:27PM 31.3939 -78.4586 195° South 450 518 38,000  Level Jacksonville Center
02:28PM 31.2742 -78.4958 195° South 450 518 38,000  Level Jacksonville Center
02:29PM 31.1586 -78.5353 196° South 448 516 38,000  Level Jacksonville Center
02:30PM 31.0406 -78.5672 193° South 448 516 38,000  Level Jacksonville Center
02:31PM 30.9231 -78.6089 197° South 448 516 38,000  Level Jacksonville Center
02:33PM 30.7272 -78.6694 195° South 456 525 38,000  Level Miami Center
02:34PM 30.6039 -78.7036 193° South 450 518 38,000  Level Miami Center
02:35PM 30.4828 -78.7231 188° South 455 524 38,000  Level Miami Center
02:36PM 30.3575 -78.7450 189° South 452 520 38,000  Level Miami Center
02:37PM 30.2364 -78.7644 188° South 452 520 38,000  Level Miami Center
02:38PM 30.1172 -78.7864 189° South 447 514 38,000  Level Miami Center
02:39PM 29.9772 -78.8100 188° South 447 514 38,000  Level Miami Center
02:40PM 29.8581 -78.8319 189° South 444 511 38,000  Level Miami Center
02:41PM 29.7369 -78.8558 190° South 444 511 38,000  Level Miami Center
02:42PM 29.6136 -78.8703 186° South 451 519 38,000  Level Miami Center
02:43PM 29.4925 -78.8872 187° South 456 525 38,000  Level Miami Center
02:44PM 29.3669 -78.9039 187° South 451 519 38,000  Level Miami Center
02:45PM 29.2417 -78.9183 186° South 451 519 38,000  Level Miami Center
02:46PM 29.1225 -78.9350 187° South 446 513 38,000  Level Miami Center
02:47PM 28.9969 -78.9517 187° South 446 513 38,000 -300 Level Miami Center
02:48PM 28.8758 -78.9683 187° South 446 513 37,500 -780 Descending Miami Center
02:49PM 28.7525 -78.9825 186° South 446 513 36,500 -780 Descending Miami Center
02:50PM 28.6311 -79.0017 188° South 446 513 36,000 -300 Descending Miami Center
02:51PM 28.5078 -79.0206 188° South 446 513 36,000  Level Miami Center
02:52PM 28.4208 -79.1086 222° Southwest 402 463 36,000  Level Miami Center
02:53PM 28.3461 -79.2039 228° Southwest 409 471 36,000  Level Miami Center
02:54PM 28.2736 -79.3011 230° Southwest 409 471 36,000  Level Miami Center
02:55PM 28.1664 -79.3483 201° Southwest 409 471 36,000  Level Miami Center
02:56PM 28.0453 -79.3528 182° South 409 471 36,000  Level Miami Center
02:57PM 27.9261 -79.3572 182° South 423 487 36,000 -300 Level Miami Center
02:58PM 27.8089 -79.3664 184° South 429 494 35,500 -780 Descending Miami Center
02:59PM 27.6983 -79.3711 182° South 435 501 34,500 -960 Descending Miami Center
03:00PM 27.5792 -79.3778 183° South 441 507 33,600 -1,080 Descending Miami Center
03:01PM 27.4497 -79.3842 183° South 430 495 32,400 -1,200 Descending Miami Center
03:02PM 27.3347 -79.3911 183° South 424 488 31,200 -1,320 Descending Miami Center
03:03PM 27.2197 -79.3956 182° South 417 480 29,800 -1,440 Descending Miami Center
03:04PM 27.1233 -79.4075 186° South 403 464 28,400 -1,500 Descending Miami Center
03:05PM 27.0183 -79.4378 194° South 396 456 26,900 -1,620 Descending Miami Center
03:06PM 26.9072 -79.4750 197° South 388 447 25,200 -1,560 Descending Miami Center
03:07PM 26.8083 -79.5056 195° South 378 435 23,800 -1,500 Descending Miami Center
03:08PM 26.7097 -79.5333 194° South 372 428 22,200 -1,800 Descending Miami Center
03:09PM 26.6192 -79.5708 200° South 362 417 20,300 -2,340 Descending Miami Center
03:09PM 26.5939 -79.5864 209° Southwest 355 409 19,200 -2,640 Descending Miami Center
03:10PM 26.5283 -79.6292 210° Southwest 362 417 17,700 -1,920 Descending Miami Center
03:10PM 26.5175 -79.6406 223° Southwest 370 426 17,600 -1,620 Descending Miami Center
03:11PM 26.4722 -79.7206 238° Southwest 356 410 16,100 -1,620 Descending Miami Center
03:11PM 26.4636 -79.7344 235° Southwest 359 413 16,000 -240 Descending Miami Center
03:12PM 26.4244 -79.8053 238° Southwest 361 415 15,900 -300 Descending Miami Center
03:12PM 26.4094 -79.8281 234° Southwest 352 405 15,700 -1,500 Descending Miami Center
03:13PM 26.3683 -79.8944 235° Southwest 343 395 14,400 -1,620 Descending Miami Center
03:13PM 26.3533 -79.9103 223° Southwest 306 352 14,100 -1,200 Descending Miami Center
03:14PM 26.3108 -79.9531 222° Southwest 317 365 13,200 -1,200 Descending Miami Center
03:14PM 26.2914 -79.9758 226° Southwest 310 357 12,900 -1,140 Descending Miami Center
03:15PM 26.2489 -80.0164 221° Southwest 312 359 12,100 -1,320 Descending Miami Center
03:15PM 26.2214 -80.0250 196° South 305 351 11,600 -1,320 Descending Miami Center
03:16PM 26.1669 -80.0397 194° South 292 336 10,800 -1,080 Descending Miami Center
03:16PM 26.1394 -80.0481 195° South 299 344 10,500 -1,320 Descending Miami Center
03:17PM 26.0533 -80.0714 194° South 294 338 9,200 -960 Descending Miami Center
03:18PM 26.0094 -80.0817 192° South 297 342 8,900 -240 Descending Miami Center
03:18PM 25.9756 -80.0922 196° South 281 323 9,000  Climbing Miami Center
03:19PM 25.9419 -80.1100 205° Southwest 286 329 8,900  Descending Miami Center
03:19PM 25.9144 -80.1253 207° Southwest 253 291 9,000 60 Climbing Miami Center
03:20PM 25.8450 -80.1419 192° South 246 283 9,000  Level Miami Center
03:21PM 25.7717 -80.1536 188° South 248 285 9,000 -300 Level Miami Center
03:22PM 25.7350 -80.2103 234° Southwest 256 295 8,400 -540 Descending Miami Center
03:23PM 25.7142 -80.2883 254° West 251 289 7,900 -660 Descending Miami Center
03:24PM 25.7042 -80.3572 261° West 231 266 7,100 -1,080 Descending Miami Center
03:25PM 25.6942 -80.4258 261° West 221 254 5,800 -1,380 Descending Miami Center
03:26PM 25.6906 -80.4881 266° West 220 253 4,500 -900 Descending Miami Center
03:27PM 25.6847 -80.5617 265° West 215 247 4,000 -480 Descending Miami Center
03:29PM 25.7563 -80.3861 103° East  Level Estimated
03:36PM 25.7833 -80.2833 103° East  Level FlightAware Approximate
03:37PM 25.7954 -80.2901 103° East  Level Estimated
03:38PM 25.7954 -80.2901 103° East  Level Estimated
03:39PM 25.7954 -80.2901 103° East  Level Estimated
03:40PM 25.7954 -80.2901 103° East  Level Estimated
03:41PM 25.7954 -80.2901 103° East  Level Estimated
03:42PM 25.7954 -80.2901 103° East  Level Estimated
03:43PM 25.7954 -80.2901 103° East  Level Estimated
03:44PM 25.7954 -80.2901 103° East  Level Estimated
03:45PM 25.7954 -80.2901 103° East  Level Estimated
03:46PM 25.7954 -80.2901 103° East  Level Estimated
03:47PM 25.7954 -80.2901 103° East  Level Estimated
03:48PM 25.7954 -80.2901 103° East  Level Estimated
03:49PM 25.7954 -80.2901 103° East  Level Estimated
03:50PM 25.7954 -80.2901 103° East  Level Estimated
03:51PM 25.7954 -80.2901 103° East  Level Estimated
03:52PM 25.7954 -80.2901 103° East  Level Estimated